Time;durP1;ratioP1;P1;durP2;ratioP2;P2;SDS_P1;SDS_P2;PMS_P1;PMS_P2;Temp;Humidity;BMP_temperature;BMP_pressure;BME280_temperature;BME280_humidity;BME280_pressure;Samples;Min_cycle;Max_cycle;Signal;HPM_P1;HPM_P2
2023/08/16 00:01:20;;;;;;;0.40;0.40;;;15.40;99.90;;;;;;5054145;28;20043;-75
2023/08/16 00:03:46;;;;;;;0.40;0.40;;;15.40;99.90;;;;;;5054176;28;20036;-75
2023/08/16 00:06:12;;;;;;;0.40;0.40;;;15.50;99.90;;;;;;5054035;28;20041;-75
2023/08/16 00:08:38;;;;;;;;;;;15.40;99.90;;;;;;5054436;28;20047;-75
2023/08/16 00:11:04;;;;;;;0.32;0.32;;;15.30;99.90;;;;;;5053818;28;19964;-75
2023/08/16 00:13:30;;;;;;;1.37;0.53;;;15.30;99.90;;;;;;5054002;28;20135;-75
2023/08/16 00:15:56;;;;;;;0.30;0.30;;;15.30;99.90;;;;;;5054405;28;20444;-75
2023/08/16 00:18:21;;;;;;;0.30;0.30;;;15.30;99.90;;;;;;5053827;28;20080;-75
2023/08/16 00:20:47;;;;;;;0.30;0.30;;;15.30;99.90;;;;;;5053562;28;20033;-75
2023/08/16 00:23:13;;;;;;;0.30;0.30;;;15.20;99.90;;;;;;5053725;28;20116;-75
2023/08/16 00:25:39;;;;;;;0.40;0.40;;;15.20;99.90;;;;;;5053610;28;20086;-75
2023/08/16 00:28:05;;;;;;;0.30;0.30;;;15.20;99.90;;;;;;5053765;28;20208;-75
2023/08/16 00:30:30;;;;;;;0.30;0.30;;;15.10;99.90;;;;;;5053752;28;20083;-75
2023/08/16 00:32:56;;;;;;;0.50;0.50;;;15.10;99.90;;;;;;5053670;28;20037;-75
2023/08/16 00:35:22;;;;;;;0.30;0.30;;;15.10;99.90;;;;;;5053627;28;20486;-75
2023/08/16 00:37:47;;;;;;;0.30;0.30;;;15.10;99.90;;;;;;5053571;28;20041;-75
2023/08/16 00:40:15;;;;;;;0.50;0.50;;;15.10;99.90;;;;;;5053624;28;20067;-75
2023/08/16 00:42:41;;;;;;;0.30;0.30;;;15.00;99.90;;;;;;5053732;28;20041;-75
2023/08/16 00:45:07;;;;;;;0.40;0.40;;;15.00;99.90;;;;;;5053478;28;20082;-75
2023/08/16 00:47:34;;;;;;;0.30;0.30;;;15.00;99.90;;;;;;5053493;28;20049;-75
2023/08/16 00:50:00;;;;;;;0.43;0.43;;;14.90;99.90;;;;;;5053120;28;20465;-75
2023/08/16 00:52:26;;;;;;;0.40;0.40;;;14.90;99.90;;;;;;5053424;28;20079;-75
2023/08/16 00:54:52;;;;;;;0.30;0.30;;;14.90;99.90;;;;;;5053331;28;20037;-75
2023/08/16 00:57:18;;;;;;;0.30;0.30;;;14.80;99.90;;;;;;5053574;28;20128;-75
2023/08/16 00:59:44;;;;;;;0.30;0.30;;;14.80;99.90;;;;;;5053355;28;20123;-75
2023/08/16 01:02:12;;;;;;;0.30;0.30;;;14.80;99.90;;;;;;5053309;28;20036;-75
2023/08/16 01:04:38;;;;;;;0.43;0.43;;;14.70;99.90;;;;;;5053242;28;20128;-75
2023/08/16 01:07:04;;;;;;;0.50;0.50;;;14.70;99.90;;;;;;5053970;28;20133;-75
2023/08/16 01:09:30;;;;;;;0.57;0.40;;;14.70;99.90;;;;;;5057284;28;20461;-75
2023/08/16 01:12:07;;;;;;;0.30;0.30;;;14.70;99.90;;;;;;5056621;28;20052;-75
2023/08/16 01:15:03;;;;;;;0.30;0.30;;;14.60;99.90;;;;;;5057077;28;20086;-75
2023/08/16 01:17:29;;;;;;;0.32;0.32;;;14.70;99.90;;;;;;5057106;28;20497;-75
2023/08/16 01:19:57;;;;;;;0.40;0.40;;;14.70;99.90;;;;;;5057181;28;20150;-75
2023/08/16 01:22:50;;;;;;;0.70;0.70;;;14.70;99.90;;;;;;5057207;28;20045;-75
2023/08/16 01:25:34;;;;;;;1.60;0.63;;;14.60;99.90;;;;;;5057449;28;20415;-75
2023/08/16 01:28:00;;;;;;;0.45;0.40;;;14.60;99.90;;;;;;5057232;28;20053;-75
2023/08/16 01:30:28;;;;;;;0.30;0.30;;;14.50;99.90;;;;;;5056967;28;20072;-75
2023/08/16 01:32:53;;;;;;;0.90;0.60;;;14.50;99.90;;;;;;5056929;28;20155;-75
2023/08/16 01:35:20;;;;;;;0.40;0.40;;;14.40;99.90;;;;;;5057700;28;20449;-75
2023/08/16 01:37:45;;;;;;;0.60;0.47;;;14.40;99.90;;;;;;5057178;28;20048;-75
2023/08/16 01:40:12;;;;;;;0.93;0.50;;;14.40;99.90;;;;;;5056956;28;20037;-78
2023/08/16 01:42:42;;;;;;;0.35;0.35;;;14.40;99.90;;;;;;5056865;28;20037;-75
2023/08/16 01:45:09;;;;;;;0.50;0.50;;;14.30;99.90;;;;;;5057223;28;20117;-74
2023/08/16 01:47:36;;;;;;;0.40;0.40;;;14.30;99.90;;;;;;5056739;28;20045;-77
2023/08/16 01:50:03;;;;;;;0.45;0.40;;;14.20;99.90;;;;;;5056657;28;20048;-75
2023/08/16 01:52:29;;;;;;;0.38;0.38;;;14.30;99.90;;;;;;5056955;28;20068;-76
2023/08/16 01:54:55;;;;;;;0.30;0.30;;;14.30;99.90;;;;;;5056335;28;20485;-75
2023/08/16 01:57:20;;;;;;;0.40;0.40;;;14.30;99.90;;;;;;5056747;28;20063;-77
2023/08/16 01:59:46;;;;;;;0.87;0.50;;;14.30;99.90;;;;;;5056490;28;20044;-75
2023/08/16 02:02:12;;;;;;;0.43;0.43;;;14.20;99.90;;;;;;5056563;28;20072;-76
2023/08/16 02:04:38;;;;;;;0.33;0.33;;;14.20;99.90;;;;;;5056555;28;20073;-75
2023/08/16 02:07:03;;;;;;;0.43;0.43;;;14.20;99.90;;;;;;5056399;28;20048;-75
2023/08/16 02:09:29;;;;;;;0.30;0.30;;;14.10;99.90;;;;;;5056608;28;20037;-77
2023/08/16 02:11:54;;;;;;;0.40;0.40;;;14.10;99.90;;;;;;5056313;28;20045;-77
2023/08/16 02:14:20;;;;;;;0.47;0.47;;;14.10;99.90;;;;;;5056212;28;20377;-73
2023/08/16 02:16:46;;;;;;;0.40;0.40;;;14.10;99.90;;;;;;5056234;28;20036;-74
2023/08/16 02:19:11;;;;;;;0.47;0.47;;;14.10;99.90;;;;;;5056231;28;20485;-78
2023/08/16 02:21:37;;;;;;;0.40;0.40;;;14.00;99.90;;;;;;5056209;28;20033;-75
2023/08/16 02:24:03;;;;;;;0.53;0.53;;;14.00;99.90;;;;;;5056072;28;20123;-74
2023/08/16 02:26:29;;;;;;;0.30;0.30;;;14.00;99.90;;;;;;5056020;28;20187;-77
2023/08/16 02:28:54;;;;;;;0.43;0.43;;;13.90;99.90;;;;;;5055760;28;20044;-77
2023/08/16 02:31:20;;;;;;;0.30;0.30;;;13.90;99.90;;;;;;5055824;28;20036;-78
2023/08/16 02:33:45;;;;;;;0.40;0.40;;;13.80;99.90;;;;;;5055897;28;20041;-78
2023/08/16 02:36:11;;;;;;;1.07;0.53;;;13.80;99.90;;;;;;5056032;28;20182;-77
2023/08/16 02:38:37;;;;;;;0.70;0.57;;;13.80;99.90;;;;;;5055981;28;20385;-77
2023/08/16 02:41:02;;;;;;;0.33;0.33;;;13.80;99.90;;;;;;5055845;28;20123;-75
2023/08/16 02:43:28;;;;;;;0.33;0.33;;;13.80;99.90;;;;;;5055427;28;20048;-78
2023/08/16 02:45:54;;;;;;;0.30;0.30;;;13.80;99.90;;;;;;5054014;28;20469;-76
2023/08/16 02:48:19;;;;;;;0.50;0.50;;;13.80;99.90;;;;;;5055635;28;20099;-77
2023/08/16 02:50:48;;;;;;;0.77;0.50;;;13.80;99.90;;;;;;5055728;28;20124;-75
2023/08/16 02:53:13;;;;;;;0.40;0.40;;;13.70;99.90;;;;;;5055660;28;20052;-76
2023/08/16 02:55:39;;;;;;;0.40;0.40;;;13.70;99.90;;;;;;5055454;28;20044;-78
2023/08/16 02:58:05;;;;;;;0.57;0.57;;;13.80;99.90;;;;;;5055489;28;20037;-75
2023/08/16 03:00:31;;;;;;;0.50;0.50;;;13.70;99.90;;;;;;5055409;28;20044;-75
2023/08/16 03:02:57;;;;;;;0.40;0.40;;;13.60;99.90;;;;;;5055524;28;20033;-75
2023/08/16 03:05:22;;;;;;;0.40;0.40;;;13.60;99.90;;;;;;5055617;28;20081;-76
2023/08/16 03:07:48;;;;;;;0.30;0.30;;;13.60;99.90;;;;;;5055132;28;20060;-74
2023/08/16 03:10:14;;;;;;;0.40;0.40;;;13.60;99.90;;;;;;5055201;28;20041;-77
2023/08/16 03:12:39;;;;;;;0.87;0.50;;;13.60;99.90;;;;;;5055172;28;20045;-75
2023/08/16 03:15:06;;;;;;;0.50;0.50;;;13.50;99.90;;;;;;5055029;28;20041;-75
2023/08/16 03:17:31;;;;;;;0.60;0.60;;;13.50;99.90;;;;;;5054081;28;20088;-75
2023/08/16 03:19:57;;;;;;;0.40;0.40;;;13.50;99.90;;;;;;5054812;28;20041;-76
2023/08/16 03:22:23;;;;;;;0.30;0.30;;;13.50;99.90;;;;;;5054955;28;20067;-78
2023/08/16 03:24:49;;;;;;;0.40;0.40;;;13.50;99.90;;;;;;5055248;28;20041;-78
2023/08/16 03:27:15;;;;;;;0.50;0.40;;;13.50;99.90;;;;;;5054803;28;20469;-75
2023/08/16 03:29:41;;;;;;;0.30;0.30;;;13.40;99.90;;;;;;5054109;28;20064;-76
2023/08/16 03:32:07;;;;;;;0.40;0.40;;;13.40;99.90;;;;;;5055500;28;20041;-76
2023/08/16 03:34:32;;;;;;;0.40;0.40;;;13.40;99.90;;;;;;5054754;28;20465;-74
2023/08/16 03:36:58;;;;;;;0.40;0.40;;;13.40;99.90;;;;;;5054922;28;20048;-76
2023/08/16 03:39:24;;;;;;;0.40;0.40;;;13.40;99.90;;;;;;5054672;28;20082;-76
2023/08/16 03:41:49;;;;;;;0.60;0.60;;;13.30;99.90;;;;;;5054612;28;20477;-77
2023/08/16 03:44:15;;;;;;;0.40;0.40;;;13.30;99.90;;;;;;5054506;28;20097;-75
2023/08/16 03:46:41;;;;;;;0.40;0.40;;;13.20;99.90;;;;;;5054655;28;20087;-79
2023/08/16 03:49:07;;;;;;;0.77;0.77;;;13.20;99.90;;;;;;5054653;28;20085;-74
2023/08/16 03:51:33;;;;;;;0.40;0.40;;;13.20;99.90;;;;;;5054182;28;20541;-78
2023/08/16 03:53:59;;;;;;;0.50;0.50;;;13.20;99.90;;;;;;5054285;28;20330;-74
2023/08/16 03:56:25;;;;;;;0.47;0.47;;;13.20;99.90;;;;;;5054419;28;20041;-76
2023/08/16 03:58:50;;;;;;;0.35;0.35;;;13.20;99.90;;;;;;5054264;28;20114;-76
2023/08/16 04:01:16;;;;;;;0.40;0.40;;;13.20;99.90;;;;;;5054263;28;20049;-75
2023/08/16 04:03:43;;;;;;;0.40;0.40;;;13.20;99.90;;;;;;5054284;28;20040;-74
2023/08/16 04:06:12;;;;;;;0.30;0.30;;;13.10;99.90;;;;;;5054072;28;20047;-77
2023/08/16 04:08:41;;;;;;;0.32;0.32;;;13.20;99.90;;;;;;5054057;28;20477;-76
2023/08/16 04:11:07;;;;;;;0.40;0.40;;;13.20;99.90;;;;;;5053898;28;20076;-77
2023/08/16 04:13:33;;;;;;;0.30;0.30;;;13.20;99.90;;;;;;5053905;28;20052;-77
2023/08/16 04:15:59;;;;;;;0.40;0.40;;;13.20;99.90;;;;;;5053703;28;20045;-76
2023/08/16 04:18:28;;;;;;;0.33;0.33;;;13.10;99.90;;;;;;5053757;28;20052;-75
2023/08/16 04:20:54;;;;;;;0.40;0.40;;;13.20;99.90;;;;;;5053914;28;20037;-78
2023/08/16 04:23:21;;;;;;;0.40;0.40;;;13.10;99.90;;;;;;5053884;28;20051;-74
2023/08/16 04:25:46;;;;;;;0.50;0.50;;;13.10;99.90;;;;;;5053728;28;20070;-75
2023/08/16 04:28:12;;;;;;;0.50;0.50;;;13.10;99.90;;;;;;5053815;28;20044;-76
2023/08/16 04:30:38;;;;;;;1.33;0.82;;;13.10;99.90;;;;;;5053894;28;20481;-78
2023/08/16 04:33:03;;;;;;;1.52;0.50;;;13.10;99.90;;;;;;5053821;28;20461;-77
2023/08/16 04:35:29;;;;;;;0.52;0.52;;;13.10;99.90;;;;;;5053652;28;20091;-76
2023/08/16 04:37:55;;;;;;;0.40;0.40;;;13.10;99.90;;;;;;5053498;28;20044;-76
2023/08/16 04:40:20;;;;;;;0.40;0.40;;;13.20;99.90;;;;;;5053626;28;20052;-73
2023/08/16 04:42:46;;;;;;;0.30;0.30;;;13.20;99.90;;;;;;5053507;28;20040;-77
2023/08/16 04:45:12;;;;;;;0.30;0.30;;;13.30;99.90;;;;;;5053232;28;20037;-76
2023/08/16 04:47:37;;;;;;;0.33;0.33;;;13.40;99.90;;;;;;5054178;28;20053;-76
2023/08/16 04:50:06;;;;;;;0.38;0.38;;;13.40;99.90;;;;;;5053838;28;20036;-74
2023/08/16 04:52:41;;;;;;;0.30;0.30;;;13.50;99.90;;;;;;5053452;28;20098;-74
2023/08/16 04:55:07;;;;;;;0.40;0.40;;;13.50;99.90;;;;;;5053480;28;20029;-74
2023/08/16 04:57:32;;;;;;;0.40;0.40;;;13.50;99.90;;;;;;5053349;28;20040;-77
2023/08/16 04:59:58;;;;;;;0.40;0.40;;;13.60;99.90;;;;;;5054043;28;20145;-74
2023/08/16 05:02:24;;;;;;;0.35;0.35;;;13.70;99.90;;;;;;5053417;28;20121;-75
2023/08/16 05:04:50;;;;;;;0.60;0.60;;;13.70;99.90;;;;;;5053364;28;20102;-75
2023/08/16 05:07:15;;;;;;;0.40;0.40;;;13.80;99.90;;;;;;5053048;28;20128;-75
2023/08/16 05:09:41;;;;;;;0.40;0.40;;;13.90;99.90;;;;;;5053353;28;20088;-75
2023/08/16 05:12:07;;;;;;;0.40;0.40;;;13.90;99.90;;;;;;5053165;28;20040;-76
2023/08/16 05:14:33;;;;;;;0.85;0.82;;;14.00;99.90;;;;;;5053012;28;20037;-73
2023/08/16 05:16:58;;;;;;;0.40;0.40;;;14.00;99.90;;;;;;5053049;28;20041;-76
2023/08/16 05:19:24;;;;;;;0.40;0.40;;;14.10;99.90;;;;;;5053837;28;20056;-75
2023/08/16 05:21:49;;;;;;;0.47;0.47;;;14.20;99.90;;;;;;5053409;28;20041;-76
2023/08/16 05:24:15;;;;;;;0.33;0.33;;;14.20;99.90;;;;;;5053183;28;20072;-74
2023/08/16 05:26:41;;;;;;;0.40;0.40;;;14.30;99.90;;;;;;5052709;28;20037;-74
2023/08/16 05:29:06;;;;;;;0.32;0.32;;;14.40;99.90;;;;;;5053328;28;20372;-73
2023/08/16 05:31:32;;;;;;;0.40;0.40;;;14.50;99.90;;;;;;5053245;28;20091;-75
2023/08/16 05:33:57;;;;;;;0.37;0.37;;;14.50;99.90;;;;;;5052915;28;20470;-73
2023/08/16 05:36:28;;;;;;;0.50;0.50;;;14.50;99.90;;;;;;5053090;28;20453;-76
2023/08/16 05:38:54;;;;;;;0.30;0.30;;;14.60;99.90;;;;;;5052871;28;20079;-73
2023/08/16 05:41:19;;;;;;;0.40;0.40;;;14.60;99.90;;;;;;5052901;28;20045;-75
2023/08/16 05:43:45;;;;;;;0.40;0.40;;;14.60;99.90;;;;;;5053009;28;20358;-73
2023/08/16 05:46:10;;;;;;;0.40;0.40;;;14.60;99.90;;;;;;5052806;28;20523;-73
2023/08/16 05:48:36;;;;;;;0.40;0.40;;;14.70;99.90;;;;;;5052959;28;20049;-71
2023/08/16 05:51:02;;;;;;;0.50;0.50;;;14.70;99.90;;;;;;5052917;28;20037;-72
2023/08/16 05:53:27;;;;;;;0.40;0.40;;;14.80;99.90;;;;;;5054093;28;20044;-72
2023/08/16 05:55:53;;;;;;;0.40;0.40;;;14.90;99.90;;;;;;5056688;28;20036;-73
2023/08/16 05:58:18;;;;;;;1.27;0.57;;;14.90;99.90;;;;;;5056278;28;20182;-75
2023/08/16 06:00:45;;;;;;;0.32;0.32;;;14.90;99.90;;;;;;5056531;28;20139;-73
2023/08/16 06:03:12;;;;;;;;;;;14.90;99.90;;;;;;5056718;28;20063;-78
2023/08/16 06:05:38;;;;;;;0.40;0.40;;;14.90;99.90;;;;;;5056368;28;19975;-75
2023/08/16 06:08:04;;;;;;;0.30;0.30;;;14.90;99.90;;;;;;5056661;28;20041;-75
2023/08/16 06:10:30;;;;;;;0.30;0.30;;;15.10;99.90;;;;;;5055262;28;20089;-78
2023/08/16 06:12:55;;;;;;;0.40;0.40;;;15.10;99.90;;;;;;5056148;28;20040;-78
2023/08/16 06:15:22;;;;;;;0.40;0.40;;;15.30;99.90;;;;;;5056461;28;20042;-79
2023/08/16 06:17:47;;;;;;;0.40;0.40;;;15.30;99.90;;;;;;5055893;28;20051;-79
2023/08/16 06:20:14;;;;;;;0.47;0.47;;;15.40;99.90;;;;;;5056419;28;20128;-78
2023/08/16 06:22:40;;;;;;;0.30;0.30;;;15.60;99.90;;;;;;5055996;28;20041;-79
2023/08/16 06:25:09;;;;;;;0.30;0.30;;;15.80;99.90;;;;;;5056097;28;20037;-80
2023/08/16 06:27:35;;;;;;;0.30;0.30;;;15.80;99.90;;;;;;5038561;28;20045;-83
2023/08/16 06:30:01;;;;;;;0.40;0.40;;;16.10;99.90;;;;;;5055987;28;20101;-81
2023/08/16 06:32:27;;;;;;;0.40;0.40;;;16.30;99.90;;;;;;5054856;28;20089;-75
2023/08/16 06:34:52;;;;;;;0.30;0.30;;;16.50;99.90;;;;;;5056008;28;20279;-75
2023/08/16 06:37:18;;;;;;;0.37;0.37;;;16.80;99.90;;;;;;5055844;28;20373;-75
2023/08/16 06:39:44;;;;;;;0.30;0.30;;;16.90;99.90;;;;;;5054594;28;20377;-75
2023/08/16 06:42:09;;;;;;;0.30;0.30;;;17.10;99.90;;;;;;5055701;28;20091;-74
2023/08/16 06:44:35;;;;;;;0.30;0.30;;;17.30;99.90;;;;;;5055670;28;20120;-75
2023/08/16 06:47:01;;;;;;;0.30;0.30;;;17.40;99.90;;;;;;5055659;28;20044;-75
2023/08/16 06:49:27;;;;;;;0.30;0.30;;;17.50;99.90;;;;;;5055836;28;20179;-75
2023/08/16 06:51:52;;;;;;;0.30;0.30;;;17.70;99.90;;;;;;5055721;28;20479;-74
2023/08/16 06:54:18;;;;;;;0.40;0.40;;;17.80;99.90;;;;;;5055615;28;20125;-75
2023/08/16 06:56:44;;;;;;;0.30;0.30;;;17.90;99.90;;;;;;5055429;28;20508;-74
2023/08/16 06:59:10;;;;;;;0.37;0.37;;;18.10;99.90;;;;;;5055928;28;20346;-75
2023/08/16 07:01:35;;;;;;;0.30;0.30;;;18.20;99.90;;;;;;5055405;28;20384;-74
2023/08/16 07:04:01;;;;;;;0.37;0.37;;;18.30;99.90;;;;;;5055075;28;20124;-75
2023/08/16 07:06:27;;;;;;;0.40;0.40;;;18.40;99.90;;;;;;5054608;28;20116;-76
2023/08/16 07:08:53;;;;;;;0.60;0.50;;;18.50;99.90;;;;;;5055312;28;20048;-75
2023/08/16 07:11:19;;;;;;;0.50;0.50;;;18.60;99.90;;;;;;5054879;28;20495;-74
2023/08/16 07:13:44;;;;;;;0.40;0.40;;;18.70;99.90;;;;;;5055206;28;20041;-75
2023/08/16 07:16:10;;;;;;;0.30;0.30;;;18.70;99.90;;;;;;5055586;28;20044;-75
2023/08/16 07:18:35;;;;;;;0.40;0.40;;;18.80;99.90;;;;;;5054965;28;20049;-75
2023/08/16 07:21:01;;;;;;;0.40;0.40;;;18.90;99.90;;;;;;5054998;28;20127;-74
2023/08/16 07:23:27;;;;;;;0.30;0.30;;;19.00;99.90;;;;;;5054979;28;20041;-75
2023/08/16 07:25:56;;;;;;;0.30;0.30;;;19.10;99.90;;;;;;5054639;28;20037;-74
2023/08/16 07:28:25;;;;;;;0.40;0.38;;;19.20;99.90;;;;;;5054845;28;20041;-74
2023/08/16 07:30:55;;;;;;;0.38;0.38;;;19.10;99.90;;;;;;5054885;28;20362;-76
2023/08/16 07:33:22;;;;;;;0.40;0.40;;;19.00;99.90;;;;;;5055022;28;20072;-75
2023/08/16 07:35:49;;;;;;;0.30;0.30;;;18.90;99.90;;;;;;5054739;28;20041;-78
2023/08/16 07:38:14;;;;;;;0.70;0.47;;;18.90;99.90;;;;;;5054688;28;20041;-79
2023/08/16 07:40:45;;;;;;;0.40;0.40;;;18.80;99.90;;;;;;5054576;28;20386;-76
2023/08/16 07:43:11;;;;;;;0.30;0.30;;;18.80;99.90;;;;;;5055156;28;20059;-76
2023/08/16 07:45:37;;;;;;;0.30;0.30;;;18.80;99.90;;;;;;5054544;28;20119;-77
2023/08/16 07:48:03;;;;;;;0.20;0.20;;;18.80;99.90;;;;;;5054739;28;20045;-76
2023/08/16 07:50:29;;;;;;;0.25;0.25;;;18.70;99.90;;;;;;5054382;28;20044;-77
2023/08/16 07:52:54;;;;;;;0.30;0.30;;;18.70;99.90;;;;;;5054044;28;20380;-76
2023/08/16 07:55:22;;;;;;;0.40;0.40;;;18.70;99.90;;;;;;5054258;28;20102;-75
2023/08/16 07:57:48;;;;;;;0.30;0.30;;;18.80;99.90;;;;;;5054264;28;20052;-76
2023/08/16 08:00:14;;;;;;;0.33;0.33;;;18.90;99.90;;;;;;5054337;28;20037;-75
2023/08/16 08:02:40;;;;;;;0.30;0.30;;;19.10;99.90;;;;;;5053417;28;20037;-75
2023/08/16 08:05:06;;;;;;;0.30;0.30;;;19.30;99.90;;;;;;5054119;28;20484;-76
2023/08/16 08:07:32;;;;;;;0.30;0.30;;;19.50;99.90;;;;;;5054008;28;20760;-74
2023/08/16 08:09:58;;;;;;;0.40;0.40;;;19.60;99.90;;;;;;5053763;28;20044;-75
2023/08/16 08:12:24;;;;;;;0.30;0.30;;;19.70;99.90;;;;;;5054057;28;20037;-75
2023/08/16 08:14:50;;;;;;;0.30;0.30;;;19.80;99.90;;;;;;5054014;28;20041;-75
2023/08/16 08:17:16;;;;;;;0.30;0.30;;;19.80;99.90;;;;;;5053535;28;20053;-76
2023/08/16 08:19:41;;;;;;;0.43;0.43;;;19.80;99.90;;;;;;5053882;28;20036;-76
2023/08/16 08:22:07;;;;;;;1.20;0.70;;;19.80;99.90;;;;;;5053951;28;20110;-77
2023/08/16 08:24:33;;;;;;;0.77;0.77;;;19.80;99.90;;;;;;5053843;28;20420;-77
2023/08/16 08:26:59;;;;;;;0.30;0.30;;;19.60;99.90;;;;;;5053692;28;20045;-76
2023/08/16 08:29:25;;;;;;;0.30;0.30;;;19.70;99.90;;;;;;5053712;28;20045;-77
2023/08/16 08:31:53;;;;;;;0.40;0.40;;;19.70;99.90;;;;;;5053804;28;20111;-79
2023/08/16 08:34:19;;;;;;;0.30;0.30;;;19.80;99.90;;;;;;5053673;28;20053;-77
2023/08/16 08:36:44;;;;;;;0.30;0.30;;;19.80;99.90;;;;;;5053264;28;20396;-77
2023/08/16 08:39:10;;;;;;;0.30;0.30;;;19.90;99.90;;;;;;5053490;28;20045;-77
2023/08/16 08:41:37;;;;;;;0.20;0.20;;;20.00;99.90;;;;;;5053472;28;20036;-77
2023/08/16 08:44:03;;;;;;;0.30;0.30;;;20.00;99.90;;;;;;5053659;28;20190;-77
2023/08/16 08:46:30;;;;;;;0.30;0.30;;;20.00;99.90;;;;;;5053648;28;20033;-76
2023/08/16 08:48:59;;;;;;;3.53;0.95;;;19.90;99.90;;;;;;5053641;28;20037;-77
2023/08/16 08:51:30;;;;;;;0.25;0.25;;;19.80;99.90;;;;;;5053358;28;20477;-77
2023/08/16 08:53:56;;;;;;;0.32;0.32;;;19.80;99.90;;;;;;5053014;28;20044;-78
2023/08/16 08:56:23;;;;;;;0.77;0.30;;;19.70;99.90;;;;;;5053717;28;20032;-77
2023/08/16 08:58:50;;;;;;;0.30;0.30;;;19.70;99.90;;;;;;5053250;28;20041;-77
2023/08/16 09:01:17;;;;;;;0.43;0.40;;;19.80;99.90;;;;;;5052058;28;20037;-77
2023/08/16 09:03:45;;;;;;;0.40;0.40;;;19.90;99.90;;;;;;5052951;28;20469;-76
2023/08/16 09:06:12;;;;;;;0.40;0.40;;;20.10;99.90;;;;;;5053079;28;20037;-78
2023/08/16 09:08:40;;;;;;;0.32;0.32;;;20.40;99.90;;;;;;5053182;28;20087;-77
2023/08/16 09:11:06;;;;;;;0.30;0.30;;;20.60;99.90;;;;;;5053647;28;20049;-76
2023/08/16 09:13:32;;;;;;;0.30;0.30;;;20.80;99.90;;;;;;5053459;28;20556;-73
2023/08/16 09:16:01;;;;;;;0.30;0.30;;;20.90;99.90;;;;;;5053156;28;20087;-75
2023/08/16 09:18:27;;;;;;;0.30;0.30;;;20.90;99.90;;;;;;5053252;28;20055;-72
2023/08/16 09:20:53;;;;;;;0.30;0.30;;;21.00;99.90;;;;;;5053345;28;20412;-72
2023/08/16 09:23:19;;;;;;;0.45;0.30;;;21.10;99.90;;;;;;5053040;28;20041;-71
2023/08/16 09:25:46;;;;;;;0.30;0.30;;;21.30;99.90;;;;;;5053015;28;20041;-70
2023/08/16 09:28:13;;;;;;;0.40;0.40;;;21.50;99.90;;;;;;5054108;28;20049;-72
2023/08/16 09:30:38;;;;;;;;;;;21.50;99.90;;;;;;5057351;28;20051;-72
2023/08/16 09:33:05;;;;;;;2.45;0.73;;;21.60;99.90;;;;;;5056991;28;19920;-73
2023/08/16 09:35:32;;;;;;;;;;;21.70;99.90;;;;;;5057306;28;20453;-71
2023/08/16 09:38:00;;;;;;;0.45;0.45;;;21.80;99.90;;;;;;5056824;28;20349;-71
2023/08/16 09:40:26;;;;;;;0.20;0.20;;;21.90;99.90;;;;;;5057210;28;20056;-71
2023/08/16 09:43:00;;;;;;;0.20;0.20;;;21.90;99.90;;;;;;5056655;28;20123;-70
2023/08/16 09:45:36;;;;;;;0.20;0.20;;;22.10;99.90;;;;;;5056855;28;20041;-76
2023/08/16 09:48:02;;;;;;;0.20;0.20;;;22.10;99.90;;;;;;5056683;28;20060;-72
2023/08/16 09:50:29;;;;;;;0.47;0.30;;;22.00;99.90;;;;;;5056602;28;20044;-72
2023/08/16 09:52:58;;;;;;;0.25;0.25;;;22.00;99.90;;;;;;5056506;28;20656;-74
2023/08/16 09:55:28;;;;;;;0.40;0.40;;;21.90;99.90;;;;;;5056452;28;20047;-72
2023/08/16 09:57:57;;;;;;;0.20;0.20;;;21.90;99.90;;;;;;5056759;28;20045;-73
2023/08/16 10:00:23;;;;;;;0.20;0.20;;;22.00;99.90;;;;;;5056405;28;20053;-73
2023/08/16 10:02:50;;;;;;;0.20;0.20;;;22.10;99.90;;;;;;5056246;28;20045;-75
2023/08/16 10:05:16;;;;;;;;;;;22.10;99.90;;;;;;5057122;28;20048;-75
2023/08/16 10:07:42;;;;;;;0.30;0.30;;;22.10;99.90;;;;;;5056425;28;19920;-74
2023/08/16 10:10:12;;;;;;;0.20;0.20;;;22.10;99.90;;;;;;5052587;28;20492;-77
2023/08/16 10:12:44;;;;;;;0.30;0.30;;;22.10;99.90;;;;;;5052299;28;20088;-76
2023/08/16 10:15:10;;;;;;;0.30;0.30;;;22.00;99.90;;;;;;5039592;28;20032;-73
2023/08/16 10:17:42;;;;;;;0.30;0.30;;;21.90;99.90;;;;;;5054744;28;20060;-76
2023/08/16 10:20:17;;;;;;;0.50;0.50;;;21.90;99.90;;;;;;5043748;28;20033;-71
2023/08/16 10:22:44;;;;;;;0.70;0.43;;;21.90;99.90;;;;;;5052163;28;20037;-77
2023/08/16 10:25:16;;;;;;;0.20;0.20;;;22.00;99.90;;;;;;5046632;28;20037;-79
2023/08/16 10:27:44;;;;;;;0.30;0.30;;;22.10;99.90;;;;;;5041424;28;20036;-71
2023/08/16 10:30:20;;;;;;;0.20;0.20;;;22.10;99.90;;;;;;5047166;28;20053;-71
2023/08/16 10:32:48;;;;;;;0.20;0.20;;;22.10;99.90;;;;;;5040265;28;20045;-73
2023/08/16 10:35:14;;;;;;;0.20;0.20;;;22.20;99.90;;;;;;5053488;28;20116;-70
2023/08/16 10:37:41;;;;;;;;;;;22.20;99.90;;;;;;5055097;28;20203;-75
2023/08/16 10:40:17;;;;;;;0.38;0.38;;;22.20;99.90;;;;;;5038859;28;19917;-74
2023/08/16 10:42:53;;;;;;;0.30;0.30;;;22.10;99.90;;;;;;5045875;28;20036;-75
2023/08/16 10:45:33;;;;;;;0.43;0.40;;;22.00;99.90;;;;;;5050695;28;20042;-74
2023/08/16 10:48:16;;;;;;;0.30;0.30;;;22.10;99.90;;;;;;5051108;28;20474;-73
2023/08/16 10:50:42;;;;;;;0.30;0.30;;;22.00;99.90;;;;;;5055332;28;20528;-74
2023/08/16 10:53:08;;;;;;;0.30;0.30;;;21.90;99.90;;;;;;5053680;28;20408;-72
2023/08/16 10:55:34;;;;;;;0.20;0.20;;;21.90;99.90;;;;;;5050803;28;20044;-76
2023/08/16 10:58:01;;;;;;;0.30;0.30;;;21.80;99.90;;;;;;5047487;28;20052;-77
2023/08/16 11:00:32;;;;;;;0.30;0.30;;;21.80;99.90;;;;;;5049733;28;20381;-79
2023/08/16 11:02:59;;;;;;;0.40;0.40;;;21.90;99.90;;;;;;5048756;28;20067;-75
2023/08/16 11:05:26;;;;;;;0.40;0.40;;;21.90;99.90;;;;;;5053294;28;20495;-77
2023/08/16 11:07:52;;;;;;;0.30;0.30;;;22.00;99.90;;;;;;5054783;28;20489;-76
2023/08/16 11:10:18;;;;;;;0.20;0.20;;;22.10;99.90;;;;;;5052331;28;20094;-75
2023/08/16 11:12:43;;;;;;;0.30;0.30;;;22.20;99.90;;;;;;5055345;28;20078;-75
2023/08/16 11:15:09;;;;;;;0.20;0.20;;;22.20;99.90;;;;;;5054616;28;20477;-73
2023/08/16 11:17:38;;;;;;;0.20;0.20;;;22.30;99.90;;;;;;5054616;28;20045;-74
2023/08/16 11:20:05;;;;;;;0.20;0.20;;;22.40;99.90;;;;;;5065116;28;20052;-73
2023/08/16 11:22:31;;;;;;;;;;;22.40;99.90;;;;;;5057831;28;20059;-73
2023/08/16 11:25:00;;;;;;;0.20;0.20;;;22.40;99.90;;;;;;5047398;28;19916;-75
2023/08/16 11:27:29;;;;;;;0.20;0.20;;;22.40;99.90;;;;;;5043827;28;20033;-79
2023/08/16 11:29:55;;;;;;;0.20;0.20;;;22.50;99.90;;;;;;5040014;28;20072;-72
2023/08/16 11:32:37;;;;;;;0.30;0.30;;;22.70;99.90;;;;;;5041425;28;20077;-71
2023/08/16 11:35:06;;;;;;;0.30;0.30;;;22.80;99.90;;;;;;5047566;28;20064;-71
2023/08/16 11:37:33;;;;;;;0.20;0.20;;;22.90;99.90;;;;;;5049849;28;20388;-70
2023/08/16 11:39:59;;;;;;;0.40;0.40;;;23.00;99.90;;;;;;5041407;28;20509;-69
2023/08/16 11:42:30;;;;;;;0.52;0.30;;;23.00;99.90;;;;;;5039996;28;20041;-70
2023/08/16 11:44:55;;;;;;;0.20;0.20;;;23.00;99.90;;;;;;5047866;28;20044;-70
2023/08/16 11:47:22;;;;;;;0.40;0.40;;;23.00;99.90;;;;;;5052523;28;20047;-71
2023/08/16 11:49:50;;;;;;;0.20;0.20;;;23.00;99.90;;;;;;5046562;28;20478;-71
2023/08/16 11:52:23;;;;;;;0.20;0.20;;;23.00;99.90;;;;;;5044365;28;20041;-77
2023/08/16 11:55:04;;;;;;;0.20;0.20;;;23.00;99.90;;;;;;5068505;28;20120;-71
2023/08/16 11:57:31;;;;;;;0.50;0.50;;;23.00;99.90;;;;;;5036624;28;20602;-72
2023/08/16 11:59:57;;;;;;;0.30;0.30;;;23.00;99.90;;;;;;5061731;28;20427;-71
2023/08/16 12:02:23;;;;;;;0.20;0.20;;;23.00;99.90;;;;;;5057077;28;20032;-72
2023/08/16 12:04:49;;;;;;;;;;;23.10;99.90;;;;;;5069681;28;20048;-72
2023/08/16 12:07:15;;;;;;;0.20;0.20;;;23.00;99.90;;;;;;5053730;28;20256;-71
2023/08/16 12:09:41;;;;;;;0.20;0.20;;;23.00;99.90;;;;;;5036129;28;20029;-71
2023/08/16 12:12:08;;;;;;;0.30;0.30;;;23.00;99.90;;;;;;5043830;28;20535;-73
2023/08/16 12:14:34;;;;;;;0.20;0.20;;;23.00;99.90;;;;;;5054014;28;20033;-80
2023/08/16 12:17:00;;;;;;;0.50;0.50;;;23.10;99.90;;;;;;5053675;28;20040;-85
2023/08/16 12:19:25;;;;;;;0.20;0.20;;;23.10;99.90;;;;;;5054269;28;20041;-85
2023/08/16 12:21:52;;;;;;;0.30;0.30;;;23.30;99.90;;;;;;5069644;28;20132;-88
2023/08/16 12:24:19;;;;;;;0.20;0.20;;;23.50;99.90;;;;;;5052895;28;20534;-77
2023/08/16 12:26:44;;;;;;;0.20;0.20;;;23.70;99.90;;;;;;5053947;28;20464;-76
2023/08/16 12:29:10;;;;;;;0.40;0.40;;;23.90;99.90;;;;;;5053825;28;20039;-73
2023/08/16 12:31:36;;;;;;;0.20;0.20;;;23.90;99.90;;;;;;5053868;28;20112;-74
2023/08/16 12:34:01;;;;;;;0.20;0.20;;;24.10;99.90;;;;;;5054106;28;20580;-74
2023/08/16 12:36:27;;;;;;;0.20;0.20;;;24.30;99.90;;;;;;5053648;28;20057;-73
2023/08/16 12:38:52;;;;;;;0.20;0.20;;;24.30;99.90;;;;;;5053766;28;20048;-75
2023/08/16 12:41:18;;;;;;;0.20;0.20;;;24.30;99.90;;;;;;5053617;28;20090;-80
2023/08/16 12:43:44;;;;;;;0.20;0.20;;;24.30;99.90;;;;;;5043578;28;20068;-76
2023/08/16 12:46:09;;;;;;;0.30;0.30;;;24.30;99.90;;;;;;5042344;28;20041;-74